sensor_id;sensor_type;location;lat;lon;timestamp;temperature;humidity
40828;DHT22;26549;50.918;5.338;2023-05-07T00:00:12;16.70;99.90
40828;DHT22;26549;50.918;5.338;2023-05-07T00:02:40;16.70;99.90
40828;DHT22;26549;50.918;5.338;2023-05-07T00:05:06;16.80;99.90
40828;DHT22;26549;50.918;5.338;2023-05-07T00:07:32;16.80;99.90
40828;DHT22;26549;50.918;5.338;2023-05-07T00:09:58;16.80;99.90
40828;DHT22;26549;50.918;5.338;2023-05-07T00:12:25;16.90;99.90
40828;DHT22;26549;50.918;5.338;2023-05-07T00:14:50;16.80;99.90
40828;DHT22;26549;50.918;5.338;2023-05-07T00:17:16;16.80;99.90
40828;DHT22;26549;50.918;5.338;2023-05-07T00:19:42;16.80;99.90
40828;DHT22;26549;50.918;5.338;2023-05-07T00:22:08;16.70;99.90
40828;DHT22;26549;50.918;5.338;2023-05-07T00:24:34;16.70;99.90
40828;DHT22;26549;50.918;5.338;2023-05-07T00:27:00;16.70;99.90
40828;DHT22;26549;50.918;5.338;2023-05-07T00:29:25;16.50;99.90
40828;DHT22;26549;50.918;5.338;2023-05-07T00:31:51;16.50;99.90
40828;DHT22;26549;50.918;5.338;2023-05-07T00:34:19;16.30;99.90
40828;DHT22;26549;50.918;5.338;2023-05-07T00:36:45;16.40;99.90
40828;DHT22;26549;50.918;5.338;2023-05-07T00:39:11;16.50;99.90
40828;DHT22;26549;50.918;5.338;2023-05-07T00:41:37;16.60;99.90
40828;DHT22;26549;50.918;5.338;2023-05-07T00:44:02;16.50;99.90
40828;DHT22;26549;50.918;5.338;2023-05-07T00:46:29;16.50;99.90
40828;DHT22;26549;50.918;5.338;2023-05-07T00:48:56;16.50;99.90
40828;DHT22;26549;50.918;5.338;2023-05-07T00:51:23;16.40;99.90
40828;DHT22;26549;50.918;5.338;2023-05-07T00:53:50;16.40;99.90
40828;DHT22;26549;50.918;5.338;2023-05-07T00:56:17;16.40;99.90
40828;DHT22;26549;50.918;5.338;2023-05-07T00:58:42;16.40;99.90
40828;DHT22;26549;50.918;5.338;2023-05-07T01:01:08;16.30;99.90
40828;DHT22;26549;50.918;5.338;2023-05-07T01:03:34;16.30;99.90
40828;DHT22;26549;50.918;5.338;2023-05-07T01:06:01;16.40;99.90
40828;DHT22;26549;50.918;5.338;2023-05-07T01:08:28;16.50;99.90
40828;DHT22;26549;50.918;5.338;2023-05-07T01:10:56;16.60;99.90
40828;DHT22;26549;50.918;5.338;2023-05-07T01:13:23;16.50;99.90
40828;DHT22;26549;50.918;5.338;2023-05-07T01:15:49;16.60;99.90
40828;DHT22;26549;50.918;5.338;2023-05-07T01:18:15;16.60;99.90
40828;DHT22;26549;50.918;5.338;2023-05-07T01:20:42;16.40;99.90
40828;DHT22;26549;50.918;5.338;2023-05-07T01:23:08;16.40;99.90
40828;DHT22;26549;50.918;5.338;2023-05-07T01:25:36;16.50;99.90
40828;DHT22;26549;50.918;5.338;2023-05-07T01:28:02;16.50;99.90
40828;DHT22;26549;50.918;5.338;2023-05-07T01:30:28;16.30;99.90
40828;DHT22;26549;50.918;5.338;2023-05-07T01:33:09;16.30;99.90
40828;DHT22;26549;50.918;5.338;2023-05-07T01:35:39;16.20;99.90
40828;DHT22;26549;50.918;5.338;2023-05-07T01:38:06;16.30;99.90
40828;DHT22;26549;50.918;5.338;2023-05-07T01:40:33;16.20;99.90
40828;DHT22;26549;50.918;5.338;2023-05-07T01:43:00;16.30;99.90
40828;DHT22;26549;50.918;5.338;2023-05-07T01:45:27;16.10;99.90
40828;DHT22;26549;50.918;5.338;2023-05-07T01:47:54;16.20;99.90
40828;DHT22;26549;50.918;5.338;2023-05-07T01:50:20;16.10;99.90
40828;DHT22;26549;50.918;5.338;2023-05-07T01:52:47;16.10;99.90
40828;DHT22;26549;50.918;5.338;2023-05-07T01:55:14;16.10;99.90
40828;DHT22;26549;50.918;5.338;2023-05-07T01:57:40;16.20;99.90
40828;DHT22;26549;50.918;5.338;2023-05-07T02:00:07;16.10;99.90
40828;DHT22;26549;50.918;5.338;2023-05-07T02:02:34;16.20;99.90
40828;DHT22;26549;50.918;5.338;2023-05-07T02:05:00;16.20;99.90
40828;DHT22;26549;50.918;5.338;2023-05-07T02:07:27;16.40;99.90
40828;DHT22;26549;50.918;5.338;2023-05-07T02:09:53;16.30;99.90
40828;DHT22;26549;50.918;5.338;2023-05-07T02:12:21;16.20;99.90
40828;DHT22;26549;50.918;5.338;2023-05-07T02:14:46;16.20;99.90
40828;DHT22;26549;50.918;5.338;2023-05-07T02:17:12;16.10;99.90
40828;DHT22;26549;50.918;5.338;2023-05-07T02:19:38;16.10;99.90
40828;DHT22;26549;50.918;5.338;2023-05-07T02:22:04;16.00;99.90
40828;DHT22;26549;50.918;5.338;2023-05-07T02:24:31;16.10;99.90
40828;DHT22;26549;50.918;5.338;2023-05-07T02:26:56;16.10;99.90
40828;DHT22;26549;50.918;5.338;2023-05-07T02:29:22;16.10;99.90
40828;DHT22;26549;50.918;5.338;2023-05-07T02:31:48;16.00;99.90
40828;DHT22;26549;50.918;5.338;2023-05-07T02:34:17;16.00;99.90
40828;DHT22;26549;50.918;5.338;2023-05-07T02:36:43;16.10;99.90
40828;DHT22;26549;50.918;5.338;2023-05-07T02:39:08;16.20;99.90
40828;DHT22;26549;50.918;5.338;2023-05-07T02:41:35;16.30;99.90
40828;DHT22;26549;50.918;5.338;2023-05-07T02:44:01;16.40;99.90
40828;DHT22;26549;50.918;5.338;2023-05-07T02:46:27;16.40;99.90
40828;DHT22;26549;50.918;5.338;2023-05-07T02:48:52;16.30;99.90
40828;DHT22;26549;50.918;5.338;2023-05-07T02:51:20;16.30;99.90
40828;DHT22;26549;50.918;5.338;2023-05-07T02:53:46;16.20;99.90
40828;DHT22;26549;50.918;5.338;2023-05-07T02:56:14;16.20;99.90
40828;DHT22;26549;50.918;5.338;2023-05-07T02:58:40;16.20;99.90
40828;DHT22;26549;50.918;5.338;2023-05-07T03:01:06;16.30;99.90
40828;DHT22;26549;50.918;5.338;2023-05-07T03:03:32;16.20;99.90
40828;DHT22;26549;50.918;5.338;2023-05-07T03:05:57;16.20;99.90
40828;DHT22;26549;50.918;5.338;2023-05-07T03:08:24;16.10;99.90
40828;DHT22;26549;50.918;5.338;2023-05-07T03:10:49;15.90;99.90
40828;DHT22;26549;50.918;5.338;2023-05-07T03:13:16;15.90;99.90
40828;DHT22;26549;50.918;5.338;2023-05-07T03:15:42;16.00;99.90
40828;DHT22;26549;50.918;5.338;2023-05-07T03:18:07;16.00;99.90
40828;DHT22;26549;50.918;5.338;2023-05-07T03:20:33;16.00;99.90
40828;DHT22;26549;50.918;5.338;2023-05-07T03:22:59;15.80;99.90
40828;DHT22;26549;50.918;5.338;2023-05-07T03:25:25;15.80;99.90
40828;DHT22;26549;50.918;5.338;2023-05-07T03:27:51;15.80;99.90
40828;DHT22;26549;50.918;5.338;2023-05-07T03:30:18;15.80;99.90
40828;DHT22;26549;50.918;5.338;2023-05-07T03:32:43;15.90;99.90
40828;DHT22;26549;50.918;5.338;2023-05-07T03:35:09;15.90;99.90
40828;DHT22;26549;50.918;5.338;2023-05-07T03:37:35;16.00;99.90
40828;DHT22;26549;50.918;5.338;2023-05-07T03:40:01;16.00;99.90
40828;DHT22;26549;50.918;5.338;2023-05-07T03:42:28;16.10;99.90
40828;DHT22;26549;50.918;5.338;2023-05-07T03:44:54;16.10;99.90
40828;DHT22;26549;50.918;5.338;2023-05-07T03:47:20;16.00;99.90
40828;DHT22;26549;50.918;5.338;2023-05-07T03:49:46;16.10;99.90
40828;DHT22;26549;50.918;5.338;2023-05-07T03:52:12;16.00;99.90
40828;DHT22;26549;50.918;5.338;2023-05-07T03:54:37;16.00;99.90
40828;DHT22;26549;50.918;5.338;2023-05-07T03:57:03;15.90;99.90
40828;DHT22;26549;50.918;5.338;2023-05-07T03:59:29;16.10;99.90
40828;DHT22;26549;50.918;5.338;2023-05-07T04:01:54;16.10;99.90
40828;DHT22;26549;50.918;5.338;2023-05-07T04:04:20;16.20;99.90
40828;DHT22;26549;50.918;5.338;2023-05-07T04:06:46;16.20;99.90
40828;DHT22;26549;50.918;5.338;2023-05-07T04:09:12;16.20;99.90
40828;DHT22;26549;50.918;5.338;2023-05-07T04:11:38;16.30;99.90
40828;DHT22;26549;50.918;5.338;2023-05-07T04:14:06;16.30;99.90
40828;DHT22;26549;50.918;5.338;2023-05-07T04:16:32;16.30;99.90
40828;DHT22;26549;50.918;5.338;2023-05-07T04:18:57;16.30;99.90
40828;DHT22;26549;50.918;5.338;2023-05-07T04:21:23;16.40;99.90
40828;DHT22;26549;50.918;5.338;2023-05-07T04:23:49;16.40;99.90
40828;DHT22;26549;50.918;5.338;2023-05-07T04:26:15;16.50;99.90
40828;DHT22;26549;50.918;5.338;2023-05-07T04:28:41;16.40;99.90
40828;DHT22;26549;50.918;5.338;2023-05-07T04:31:07;16.40;99.90
40828;DHT22;26549;50.918;5.338;2023-05-07T04:33:34;16.30;99.90
40828;DHT22;26549;50.918;5.338;2023-05-07T04:36:03;16.30;99.90
40828;DHT22;26549;50.918;5.338;2023-05-07T04:38:32;16.30;99.90
40828;DHT22;26549;50.918;5.338;2023-05-07T04:41:05;16.40;99.90
40828;DHT22;26549;50.918;5.338;2023-05-07T04:43:32;16.40;99.90
40828;DHT22;26549;50.918;5.338;2023-05-07T04:45:58;16.30;99.90
40828;DHT22;26549;50.918;5.338;2023-05-07T04:48:24;16.30;99.90
40828;DHT22;26549;50.918;5.338;2023-05-07T04:50:50;16.30;99.90
40828;DHT22;26549;50.918;5.338;2023-05-07T04:53:17;16.30;99.90
40828;DHT22;26549;50.918;5.338;2023-05-07T04:55:43;16.30;99.90
40828;DHT22;26549;50.918;5.338;2023-05-07T04:58:09;16.40;99.90
40828;DHT22;26549;50.918;5.338;2023-05-07T05:00:36;16.40;99.90
40828;DHT22;26549;50.918;5.338;2023-05-07T05:03:01;16.30;99.90
40828;DHT22;26549;50.918;5.338;2023-05-07T05:05:27;16.30;99.90
40828;DHT22;26549;50.918;5.338;2023-05-07T05:07:53;16.40;99.90
40828;DHT22;26549;50.918;5.338;2023-05-07T05:10:18;16.50;99.90
40828;DHT22;26549;50.918;5.338;2023-05-07T05:12:44;16.40;99.90
40828;DHT22;26549;50.918;5.338;2023-05-07T05:15:12;16.40;99.90
40828;DHT22;26549;50.918;5.338;2023-05-07T05:17:38;16.40;99.90
40828;DHT22;26549;50.918;5.338;2023-05-07T05:20:05;16.40;99.90
40828;DHT22;26549;50.918;5.338;2023-05-07T05:22:31;16.30;99.90
40828;DHT22;26549;50.918;5.338;2023-05-07T05:24:57;16.30;99.90
40828;DHT22;26549;50.918;5.338;2023-05-07T05:27:23;16.40;99.90
40828;DHT22;26549;50.918;5.338;2023-05-07T05:29:49;16.50;99.90
40828;DHT22;26549;50.918;5.338;2023-05-07T05:32:14;16.60;99.90
40828;DHT22;26549;50.918;5.338;2023-05-07T05:34:40;16.60;99.90
40828;DHT22;26549;50.918;5.338;2023-05-07T05:37:06;16.80;99.90
40828;DHT22;26549;50.918;5.338;2023-05-07T05:39:32;16.80;99.90
40828;DHT22;26549;50.918;5.338;2023-05-07T05:41:58;16.80;99.90
40828;DHT22;26549;50.918;5.338;2023-05-07T05:44:24;16.80;99.90
40828;DHT22;26549;50.918;5.338;2023-05-07T05:46:50;16.80;99.90
40828;DHT22;26549;50.918;5.338;2023-05-07T05:49:16;16.90;99.90
40828;DHT22;26549;50.918;5.338;2023-05-07T05:51:43;17.00;99.90
40828;DHT22;26549;50.918;5.338;2023-05-07T05:54:09;17.10;99.90
40828;DHT22;26549;50.918;5.338;2023-05-07T05:56:35;17.30;99.90
40828;DHT22;26549;50.918;5.338;2023-05-07T05:59:00;17.20;99.90
40828;DHT22;26549;50.918;5.338;2023-05-07T06:01:26;17.50;99.90
40828;DHT22;26549;50.918;5.338;2023-05-07T06:03:53;17.70;99.90
40828;DHT22;26549;50.918;5.338;2023-05-07T06:06:19;17.70;99.90
40828;DHT22;26549;50.918;5.338;2023-05-07T06:08:45;17.60;99.90
40828;DHT22;26549;50.918;5.338;2023-05-07T06:11:11;17.60;99.90
40828;DHT22;26549;50.918;5.338;2023-05-07T06:13:37;17.70;99.90
40828;DHT22;26549;50.918;5.338;2023-05-07T06:16:03;17.60;99.90
40828;DHT22;26549;50.918;5.338;2023-05-07T06:18:28;17.70;99.90
40828;DHT22;26549;50.918;5.338;2023-05-07T06:20:55;17.70;99.90
40828;DHT22;26549;50.918;5.338;2023-05-07T06:23:20;17.70;99.90
40828;DHT22;26549;50.918;5.338;2023-05-07T06:25:50;17.80;99.90
40828;DHT22;26549;50.918;5.338;2023-05-07T06:28:16;17.90;99.90
40828;DHT22;26549;50.918;5.338;2023-05-07T06:30:42;17.90;99.90
40828;DHT22;26549;50.918;5.338;2023-05-07T06:33:08;18.00;99.90
40828;DHT22;26549;50.918;5.338;2023-05-07T06:35:34;18.00;99.90
40828;DHT22;26549;50.918;5.338;2023-05-07T06:38:00;18.10;99.90
40828;DHT22;26549;50.918;5.338;2023-05-07T06:40:26;18.10;99.90
40828;DHT22;26549;50.918;5.338;2023-05-07T06:42:52;18.20;99.90
40828;DHT22;26549;50.918;5.338;2023-05-07T06:45:18;18.30;99.90
40828;DHT22;26549;50.918;5.338;2023-05-07T06:47:44;18.40;99.90
40828;DHT22;26549;50.918;5.338;2023-05-07T06:50:10;18.30;99.90
40828;DHT22;26549;50.918;5.338;2023-05-07T06:52:36;18.00;99.90
40828;DHT22;26549;50.918;5.338;2023-05-07T06:55:02;18.10;99.90
40828;DHT22;26549;50.918;5.338;2023-05-07T06:57:28;18.20;99.90
40828;DHT22;26549;50.918;5.338;2023-05-07T06:59:53;18.30;99.90
40828;DHT22;26549;50.918;5.338;2023-05-07T07:02:19;18.30;99.90
40828;DHT22;26549;50.918;5.338;2023-05-07T07:04:45;18.40;99.90
40828;DHT22;26549;50.918;5.338;2023-05-07T07:07:11;18.60;99.90
40828;DHT22;26549;50.918;5.338;2023-05-07T07:09:37;18.60;99.90
40828;DHT22;26549;50.918;5.338;2023-05-07T07:12:03;18.60;99.90
40828;DHT22;26549;50.918;5.338;2023-05-07T07:14:29;18.70;99.90
40828;DHT22;26549;50.918;5.338;2023-05-07T07:16:55;18.70;99.90
40828;DHT22;26549;50.918;5.338;2023-05-07T07:19:21;18.80;99.90
40828;DHT22;26549;50.918;5.338;2023-05-07T07:21:46;19.00;99.90
40828;DHT22;26549;50.918;5.338;2023-05-07T07:24:13;19.00;99.90
40828;DHT22;26549;50.918;5.338;2023-05-07T07:26:44;19.10;99.90
40828;DHT22;26549;50.918;5.338;2023-05-07T07:29:10;19.20;99.90
40828;DHT22;26549;50.918;5.338;2023-05-07T07:31:36;19.30;99.90
40828;DHT22;26549;50.918;5.338;2023-05-07T07:34:02;19.20;99.90
40828;DHT22;26549;50.918;5.338;2023-05-07T07:36:28;19.10;99.90
40828;DHT22;26549;50.918;5.338;2023-05-07T07:38:53;19.10;99.90
40828;DHT22;26549;50.918;5.338;2023-05-07T07:41:19;19.10;99.90
40828;DHT22;26549;50.918;5.338;2023-05-07T07:43:45;19.10;99.90
40828;DHT22;26549;50.918;5.338;2023-05-07T07:46:12;19.20;99.90
40828;DHT22;26549;50.918;5.338;2023-05-07T07:48:38;19.20;99.90
40828;DHT22;26549;50.918;5.338;2023-05-07T07:51:04;19.40;99.90
40828;DHT22;26549;50.918;5.338;2023-05-07T07:53:31;19.40;99.90
40828;DHT22;26549;50.918;5.338;2023-05-07T07:55:56;19.50;99.90
40828;DHT22;26549;50.918;5.338;2023-05-07T07:58:22;19.60;99.90
40828;DHT22;26549;50.918;5.338;2023-05-07T08:00:51;19.60;99.90
40828;DHT22;26549;50.918;5.338;2023-05-07T08:03:16;19.60;99.90
40828;DHT22;26549;50.918;5.338;2023-05-07T08:05:42;19.80;99.90
40828;DHT22;26549;50.918;5.338;2023-05-07T08:08:08;19.90;99.90
40828;DHT22;26549;50.918;5.338;2023-05-07T08:10:35;20.00;99.90
40828;DHT22;26549;50.918;5.338;2023-05-07T08:13:03;20.10;99.90
40828;DHT22;26549;50.918;5.338;2023-05-07T08:15:32;20.10;99.90
40828;DHT22;26549;50.918;5.338;2023-05-07T08:17:58;20.30;99.90
40828;DHT22;26549;50.918;5.338;2023-05-07T08:20:26;20.40;99.90
40828;DHT22;26549;50.918;5.338;2023-05-07T08:22:51;20.50;99.90
40828;DHT22;26549;50.918;5.338;2023-05-07T08:25:18;20.60;99.90
40828;DHT22;26549;50.918;5.338;2023-05-07T08:27:44;20.70;99.90
40828;DHT22;26549;50.918;5.338;2023-05-07T08:30:15;20.70;99.90
40828;DHT22;26549;50.918;5.338;2023-05-07T08:32:42;20.70;99.90
40828;DHT22;26549;50.918;5.338;2023-05-07T08:35:08;20.70;99.90
40828;DHT22;26549;50.918;5.338;2023-05-07T08:37:35;20.70;99.90
40828;DHT22;26549;50.918;5.338;2023-05-07T08:40:02;20.80;99.90
40828;DHT22;26549;50.918;5.338;2023-05-07T08:42:28;20.80;99.90
40828;DHT22;26549;50.918;5.338;2023-05-07T08:44:57;21.00;99.90
40828;DHT22;26549;50.918;5.338;2023-05-07T08:47:28;21.00;99.90
40828;DHT22;26549;50.918;5.338;2023-05-07T08:49:58;20.90;99.90
40828;DHT22;26549;50.918;5.338;2023-05-07T08:52:24;21.00;99.90
40828;DHT22;26549;50.918;5.338;2023-05-07T08:54:50;21.10;99.90
40828;DHT22;26549;50.918;5.338;2023-05-07T08:57:15;21.10;99.90
40828;DHT22;26549;50.918;5.338;2023-05-07T08:59:43;21.20;99.90
40828;DHT22;26549;50.918;5.338;2023-05-07T09:02:12;21.40;99.90
40828;DHT22;26549;50.918;5.338;2023-05-07T09:04:38;21.60;99.90
40828;DHT22;26549;50.918;5.338;2023-05-07T09:07:04;21.60;99.90
40828;DHT22;26549;50.918;5.338;2023-05-07T09:09:32;21.60;99.90
40828;DHT22;26549;50.918;5.338;2023-05-07T09:11:59;21.70;99.90
40828;DHT22;26549;50.918;5.338;2023-05-07T09:14:25;21.50;99.90
40828;DHT22;26549;50.918;5.338;2023-05-07T09:16:54;21.60;99.90
40828;DHT22;26549;50.918;5.338;2023-05-07T09:19:24;21.60;99.90
40828;DHT22;26549;50.918;5.338;2023-05-07T09:21:57;21.50;99.90
40828;DHT22;26549;50.918;5.338;2023-05-07T09:24:23;21.60;99.90
40828;DHT22;26549;50.918;5.338;2023-05-07T09:26:48;21.70;99.90
40828;DHT22;26549;50.918;5.338;2023-05-07T09:29:15;21.80;99.90
40828;DHT22;26549;50.918;5.338;2023-05-07T09:31:42;21.90;99.90
40828;DHT22;26549;50.918;5.338;2023-05-07T09:34:08;22.00;99.90
40828;DHT22;26549;50.918;5.338;2023-05-07T09:36:34;21.80;99.90
40828;DHT22;26549;50.918;5.338;2023-05-07T09:39:00;21.90;99.90
40828;DHT22;26549;50.918;5.338;2023-05-07T09:41:26;21.90;99.90
40828;DHT22;26549;50.918;5.338;2023-05-07T09:43:56;21.90;99.90
40828;DHT22;26549;50.918;5.338;2023-05-07T09:46:27;21.90;99.90
40828;DHT22;26549;50.918;5.338;2023-05-07T09:48:59;21.90;99.90
40828;DHT22;26549;50.918;5.338;2023-05-07T09:51:35;22.10;99.90
40828;DHT22;26549;50.918;5.338;2023-05-07T09:54:05;22.20;99.90
40828;DHT22;26549;50.918;5.338;2023-05-07T09:56:32;22.30;99.90
40828;DHT22;26549;50.918;5.338;2023-05-07T09:59:03;22.30;99.90
40828;DHT22;26549;50.918;5.338;2023-05-07T10:01:31;22.10;99.90
40828;DHT22;26549;50.918;5.338;2023-05-07T10:03:57;21.90;99.90
40828;DHT22;26549;50.918;5.338;2023-05-07T10:06:24;21.80;99.90
40828;DHT22;26549;50.918;5.338;2023-05-07T10:08:54;21.60;99.90
40828;DHT22;26549;50.918;5.338;2023-05-07T10:11:21;21.60;99.90
40828;DHT22;26549;50.918;5.338;2023-05-07T10:13:48;21.50;99.90
40828;DHT22;26549;50.918;5.338;2023-05-07T10:16:14;21.60;99.90
40828;DHT22;26549;50.918;5.338;2023-05-07T10:18:43;21.20;99.90
40828;DHT22;26549;50.918;5.338;2023-05-07T10:21:19;21.20;99.90
40828;DHT22;26549;50.918;5.338;2023-05-07T10:23:49;21.00;99.90
40828;DHT22;26549;50.918;5.338;2023-05-07T10:26:17;20.90;99.90
40828;DHT22;26549;50.918;5.338;2023-05-07T10:28:47;20.80;99.90
40828;DHT22;26549;50.918;5.338;2023-05-07T10:31:25;20.80;99.90
40828;DHT22;26549;50.918;5.338;2023-05-07T10:33:58;20.80;99.90
40828;DHT22;26549;50.918;5.338;2023-05-07T10:36:25;20.50;99.90
40828;DHT22;26549;50.918;5.338;2023-05-07T10:38:52;20.60;99.90
40828;DHT22;26549;50.918;5.338;2023-05-07T10:41:18;20.70;99.90
40828;DHT22;26549;50.918;5.338;2023-05-07T10:43:45;20.80;99.90
40828;DHT22;26549;50.918;5.338;2023-05-07T10:46:18;21.00;99.90
40828;DHT22;26549;50.918;5.338;2023-05-07T10:51:31;21.10;99.90
40828;DHT22;26549;50.918;5.338;2023-05-07T10:56:42;20.60;99.90
40828;DHT22;26549;50.918;5.338;2023-05-07T11:01:57;20.50;99.90
40828;DHT22;26549;50.918;5.338;2023-05-07T11:04:24;20.50;99.90
40828;DHT22;26549;50.918;5.338;2023-05-07T11:09:57;20.60;99.90
40828;DHT22;26549;50.918;5.338;2023-05-07T11:15:08;20.50;99.90
40828;DHT22;26549;50.918;5.338;2023-05-07T11:20:20;20.40;99.90
40828;DHT22;26549;50.918;5.338;2023-05-07T11:22:47;20.50;99.90
40828;DHT22;26549;50.918;5.338;2023-05-07T11:25:19;20.40;99.90
40828;DHT22;26549;50.918;5.338;2023-05-07T11:27:46;20.40;99.90
40828;DHT22;26549;50.918;5.338;2023-05-07T11:30:22;20.50;99.90
40828;DHT22;26549;50.918;5.338;2023-05-07T11:32:48;20.50;99.90
40828;DHT22;26549;50.918;5.338;2023-05-07T11:35:15;20.30;99.90
40828;DHT22;26549;50.918;5.338;2023-05-07T11:37:44;20.00;99.90
40828;DHT22;26549;50.918;5.338;2023-05-07T11:40:11;20.00;99.90
40828;DHT22;26549;50.918;5.338;2023-05-07T11:42:39;19.80;99.90
40828;DHT22;26549;50.918;5.338;2023-05-07T11:45:07;19.70;99.90
40828;DHT22;26549;50.918;5.338;2023-05-07T11:47:34;19.90;99.90
40828;DHT22;26549;50.918;5.338;2023-05-07T11:50:07;20.00;99.90
40828;DHT22;26549;50.918;5.338;2023-05-07T11:52:35;20.00;99.90
40828;DHT22;26549;50.918;5.338;2023-05-07T11:55:02;20.10;99.90
40828;DHT22;26549;50.918;5.338;2023-05-07T11:57:30;20.20;99.90
40828;DHT22;26549;50.918;5.338;2023-05-07T12:00:01;20.20;99.90
40828;DHT22;26549;50.918;5.338;2023-05-07T12:02:29;20.20;99.90
40828;DHT22;26549;50.918;5.338;2023-05-07T12:05:00;20.20;99.90
40828;DHT22;26549;50.918;5.338;2023-05-07T12:07:26;20.20;99.90
40828;DHT22;26549;50.918;5.338;2023-05-07T12:09:52;20.20;99.90
40828;DHT22;26549;50.918;5.338;2023-05-07T12:12:18;20.30;99.90
40828;DHT22;26549;50.918;5.338;2023-05-07T12:14:46;20.30;99.90
40828;DHT22;26549;50.918;5.338;2023-05-07T12:17:14;20.10;99.90
40828;DHT22;26549;50.918;5.338;2023-05-07T12:19:43;20.10;99.90
40828;DHT22;26549;50.918;5.338;2023-05-07T12:22:10;20.10;99.90
40828;DHT22;26549;50.918;5.338;2023-05-07T12:24:57;20.10;99.90
40828;DHT22;26549;50.918;5.338;2023-05-07T12:27:25;20.10;99.90
40828;DHT22;26549;50.918;5.338;2023-05-07T12:29:51;20.10;99.90
40828;DHT22;26549;50.918;5.338;2023-05-07T12:32:19;20.00;99.90
40828;DHT22;26549;50.918;5.338;2023-05-07T12:34:46;19.90;99.90
40828;DHT22;26549;50.918;5.338;2023-05-07T12:37:13;19.90;99.90
40828;DHT22;26549;50.918;5.338;2023-05-07T12:39:44;19.90;99.90
40828;DHT22;26549;50.918;5.338;2023-05-07T12:42:19;19.90;99.90
40828;DHT22;26549;50.918;5.338;2023-05-07T12:44:48;19.90;99.90
40828;DHT22;26549;50.918;5.338;2023-05-07T12:47:15;20.00;99.90
40828;DHT22;26549;50.918;5.338;2023-05-07T12:49:41;19.90;99.90
40828;DHT22;26549;50.918;5.338;2023-05-07T12:52:08;20.00;99.90
40828;DHT22;26549;50.918;5.338;2023-05-07T12:54:37;20.00;99.90
40828;DHT22;26549;50.918;5.338;2023-05-07T12:57:08;20.20;99.90
40828;DHT22;26549;50.918;5.338;2023-05-07T12:59:39;20.30;99.90
40828;DHT22;26549;50.918;5.338;2023-05-07T13:02:07;20.40;99.90
40828;DHT22;26549;50.918;5.338;2023-05-07T13:04:33;20.40;99.90
40828;DHT22;26549;50.918;5.338;2023-05-07T13:06:59;20.60;99.90
40828;DHT22;26549;50.918;5.338;2023-05-07T13:09:26;20.60;99.90
40828;DHT22;26549;50.918;5.338;2023-05-07T13:11:52;20.80;99.90
40828;DHT22;26549;50.918;5.338;2023-05-07T13:14:17;20.80;99.90
40828;DHT22;26549;50.918;5.338;2023-05-07T13:16:47;20.60;99.90
40828;DHT22;26549;50.918;5.338;2023-05-07T13:19:14;20.60;99.90
40828;DHT22;26549;50.918;5.338;2023-05-07T13:21:39;20.70;99.90
40828;DHT22;26549;50.918;5.338;2023-05-07T13:24:05;20.70;99.90
40828;DHT22;26549;50.918;5.338;2023-05-07T13:26:32;20.70;99.90
40828;DHT22;26549;50.918;5.338;2023-05-07T13:29:01;20.60;99.90
40828;DHT22;26549;50.918;5.338;2023-05-07T13:31:27;20.30;99.90
40828;DHT22;26549;50.918;5.338;2023-05-07T13:33:54;20.10;99.90
40828;DHT22;26549;50.918;5.338;2023-05-07T13:36:21;19.90;99.90
40828;DHT22;26549;50.918;5.338;2023-05-07T13:38:47;20.10;99.90
40828;DHT22;26549;50.918;5.338;2023-05-07T13:41:15;20.40;99.90
40828;DHT22;26549;50.918;5.338;2023-05-07T13:43:44;20.60;99.90
40828;DHT22;26549;50.918;5.338;2023-05-07T13:46:11;20.70;99.90
40828;DHT22;26549;50.918;5.338;2023-05-07T13:48:36;20.70;99.90
40828;DHT22;26549;50.918;5.338;2023-05-07T13:51:03;20.90;99.90
40828;DHT22;26549;50.918;5.338;2023-05-07T13:53:29;20.80;99.90
40828;DHT22;26549;50.918;5.338;2023-05-07T13:55:55;20.70;99.90
40828;DHT22;26549;50.918;5.338;2023-05-07T13:58:20;20.60;99.90
40828;DHT22;26549;50.918;5.338;2023-05-07T14:00:47;20.70;99.90
40828;DHT22;26549;50.918;5.338;2023-05-07T14:03:13;20.80;99.90
40828;DHT22;26549;50.918;5.338;2023-05-07T14:05:39;20.80;99.90
40828;DHT22;26549;50.918;5.338;2023-05-07T14:08:06;20.90;99.90
40828;DHT22;26549;50.918;5.338;2023-05-07T14:10:33;20.90;99.90
40828;DHT22;26549;50.918;5.338;2023-05-07T14:13:01;21.00;99.90
40828;DHT22;26549;50.918;5.338;2023-05-07T14:15:26;21.10;99.90
40828;DHT22;26549;50.918;5.338;2023-05-07T14:17:52;20.60;99.90
40828;DHT22;26549;50.918;5.338;2023-05-07T14:20:18;20.60;99.90
40828;DHT22;26549;50.918;5.338;2023-05-07T14:22:45;20.70;99.90
40828;DHT22;26549;50.918;5.338;2023-05-07T14:25:11;20.80;99.90
40828;DHT22;26549;50.918;5.338;2023-05-07T14:27:36;20.70;99.90
40828;DHT22;26549;50.918;5.338;2023-05-07T14:30:05;20.90;99.90
40828;DHT22;26549;50.918;5.338;2023-05-07T14:32:32;21.10;99.90
40828;DHT22;26549;50.918;5.338;2023-05-07T14:34:58;20.90;99.90
40828;DHT22;26549;50.918;5.338;2023-05-07T14:37:24;20.90;99.90
40828;DHT22;26549;50.918;5.338;2023-05-07T14:39:50;21.00;99.90
40828;DHT22;26549;50.918;5.338;2023-05-07T14:42:16;21.10;99.90
40828;DHT22;26549;50.918;5.338;2023-05-07T14:44:42;21.00;99.90
40828;DHT22;26549;50.918;5.338;2023-05-07T14:47:08;21.00;99.90
40828;DHT22;26549;50.918;5.338;2023-05-07T14:49:35;21.10;99.90
40828;DHT22;26549;50.918;5.338;2023-05-07T14:52:00;21.10;99.90
40828;DHT22;26549;50.918;5.338;2023-05-07T14:54:26;21.20;99.90
40828;DHT22;26549;50.918;5.338;2023-05-07T14:56:52;21.00;99.90
40828;DHT22;26549;50.918;5.338;2023-05-07T14:59:19;21.10;99.90
40828;DHT22;26549;50.918;5.338;2023-05-07T15:01:48;21.00;99.90
40828;DHT22;26549;50.918;5.338;2023-05-07T15:04:14;20.90;99.90
40828;DHT22;26549;50.918;5.338;2023-05-07T15:06:40;20.90;99.90
40828;DHT22;26549;50.918;5.338;2023-05-07T15:09:06;21.00;99.90
40828;DHT22;26549;50.918;5.338;2023-05-07T15:11:33;20.90;99.90
40828;DHT22;26549;50.918;5.338;2023-05-07T15:13:59;20.80;99.90
40828;DHT22;26549;50.918;5.338;2023-05-07T15:16:25;20.90;99.90
40828;DHT22;26549;50.918;5.338;2023-05-07T15:18:51;20.80;99.90
40828;DHT22;26549;50.918;5.338;2023-05-07T15:21:17;20.70;99.90
40828;DHT22;26549;50.918;5.338;2023-05-07T15:23:43;20.70;99.90
40828;DHT22;26549;50.918;5.338;2023-05-07T15:26:10;20.90;99.90
40828;DHT22;26549;50.918;5.338;2023-05-07T15:28:36;20.80;99.90
40828;DHT22;26549;50.918;5.338;2023-05-07T15:31:02;20.80;99.90
40828;DHT22;26549;50.918;5.338;2023-05-07T15:33:28;20.80;99.90
40828;DHT22;26549;50.918;5.338;2023-05-07T15:35:54;20.90;99.90
40828;DHT22;26549;50.918;5.338;2023-05-07T15:38:24;20.90;99.90
40828;DHT22;26549;50.918;5.338;2023-05-07T15:40:50;21.00;99.90
40828;DHT22;26549;50.918;5.338;2023-05-07T15:43:17;21.00;99.90